sensor_id;sensor_type;location;lat;lon;timestamp;pressure;altitude;pressure_sealevel;temperature;humidity
34034;BME280;63481;52.588;22.472;2023-03-16T00:00:20;100320.89;;;-1.48;93.09
34034;BME280;63481;52.588;22.472;2023-03-16T00:01:22;100321.94;;;-1.48;93.09
34034;BME280;63481;52.588;22.472;2023-03-16T00:02:14;100326.77;;;-1.45;93.29
34034;BME280;63481;52.588;22.472;2023-03-16T00:03:07;100330.35;;;-1.44;93.42
34034;BME280;63481;52.588;22.472;2023-03-16T00:04:00;100330.91;;;-1.45;93.41
34034;BME280;63481;52.588;22.472;2023-03-16T00:04:53;100331.15;;;-1.45;93.60
34034;BME280;63481;52.588;22.472;2023-03-16T00:05:48;100337.75;;;-1.45;93.53
34034;BME280;63481;52.588;22.472;2023-03-16T00:06:41;100339.66;;;-1.45;93.55
34034;BME280;63481;52.588;22.472;2023-03-16T00:07:34;100340.06;;;-1.42;93.63
34034;BME280;63481;52.588;22.472;2023-03-16T00:08:26;100338.91;;;-1.41;93.67
34034;BME280;63481;52.588;22.472;2023-03-16T00:09:19;100337.93;;;-1.31;93.67
34034;BME280;63481;52.588;22.472;2023-03-16T00:10:12;100334.38;;;-1.26;93.75
34034;BME280;63481;52.588;22.472;2023-03-16T00:11:05;100335.83;;;-1.27;93.63
34034;BME280;63481;52.588;22.472;2023-03-16T00:12:00;100333.42;;;-1.29;93.58
34034;BME280;63481;52.588;22.472;2023-03-16T00:12:56;100333.71;;;-1.29;93.46
34034;BME280;63481;52.588;22.472;2023-03-16T00:13:48;100330.95;;;-1.29;93.69
34034;BME280;63481;52.588;22.472;2023-03-16T00:14:43;100333.67;;;-1.30;93.55
34034;BME280;63481;52.588;22.472;2023-03-16T00:15:36;100334.80;;;-1.31;93.59
34034;BME280;63481;52.588;22.472;2023-03-16T00:16:29;100335.95;;;-1.30;93.58
34034;BME280;63481;52.588;22.472;2023-03-16T00:17:23;100340.81;;;-1.26;93.57
34034;BME280;63481;52.588;22.472;2023-03-16T00:18:16;100341.64;;;-1.25;93.60
34034;BME280;63481;52.588;22.472;2023-03-16T00:19:09;100343.58;;;-1.24;93.55
34034;BME280;63481;52.588;22.472;2023-03-16T00:20:03;100341.54;;;-1.20;93.55
34034;BME280;63481;52.588;22.472;2023-03-16T00:21:00;100344.13;;;-1.22;93.65
34034;BME280;63481;52.588;22.472;2023-03-16T00:21:57;100346.69;;;-1.19;93.46
34034;BME280;63481;52.588;22.472;2023-03-16T00:22:50;100348.04;;;-1.12;93.56
34034;BME280;63481;52.588;22.472;2023-03-16T00:23:43;100349.28;;;-1.10;93.48
34034;BME280;63481;52.588;22.472;2023-03-16T00:24:36;100352.17;;;-1.11;93.37
34034;BME280;63481;52.588;22.472;2023-03-16T00:25:29;100349.56;;;-1.14;93.51
34034;BME280;63481;52.588;22.472;2023-03-16T00:26:25;100349.94;;;-1.12;93.53
34034;BME280;63481;52.588;22.472;2023-03-16T00:27:20;100350.86;;;-1.13;93.44
34034;BME280;63481;52.588;22.472;2023-03-16T00:28:13;100350.96;;;-1.11;93.69
34034;BME280;63481;52.588;22.472;2023-03-16T00:29:06;100348.04;;;-1.12;93.71
34034;BME280;63481;52.588;22.472;2023-03-16T00:29:59;100351.13;;;-1.14;93.65
34034;BME280;63481;52.588;22.472;2023-03-16T00:30:55;100354.16;;;-1.14;93.48
34034;BME280;63481;52.588;22.472;2023-03-16T00:31:50;100354.41;;;-1.11;93.66
34034;BME280;63481;52.588;22.472;2023-03-16T00:32:44;100353.77;;;-1.10;93.58
34034;BME280;63481;52.588;22.472;2023-03-16T00:33:37;100356.79;;;-1.08;93.67
34034;BME280;63481;52.588;22.472;2023-03-16T00:34:30;100357.34;;;-1.03;93.79
34034;BME280;63481;52.588;22.472;2023-03-16T00:35:26;100357.05;;;-1.01;93.82
34034;BME280;63481;52.588;22.472;2023-03-16T00:36:19;100357.92;;;-1.01;93.82
34034;BME280;63481;52.588;22.472;2023-03-16T00:37:15;100358.96;;;-0.97;93.65
34034;BME280;63481;52.588;22.472;2023-03-16T00:38:08;100359.84;;;-0.99;93.66
34034;BME280;63481;52.588;22.472;2023-03-16T00:39:01;100358.79;;;-0.95;93.60
34034;BME280;63481;52.588;22.472;2023-03-16T00:39:54;100359.78;;;-0.89;93.58
34034;BME280;63481;52.588;22.472;2023-03-16T00:40:49;100358.91;;;-0.85;93.49
34034;BME280;63481;52.588;22.472;2023-03-16T00:41:42;100360.56;;;-0.84;93.40
34034;BME280;63481;52.588;22.472;2023-03-16T00:42:35;100356.83;;;-0.85;93.47
34034;BME280;63481;52.588;22.472;2023-03-16T00:43:28;100352.66;;;-0.83;93.30
34034;BME280;63481;52.588;22.472;2023-03-16T00:44:20;100353.69;;;-0.81;93.19
34034;BME280;63481;52.588;22.472;2023-03-16T00:45:13;100354.71;;;-0.80;93.35
34034;BME280;63481;52.588;22.472;2023-03-16T00:46:10;100352.71;;;-0.80;93.22
34034;BME280;63481;52.588;22.472;2023-03-16T00:47:04;100353.67;;;-0.80;93.12
34034;BME280;63481;52.588;22.472;2023-03-16T00:47:57;100352.30;;;-0.79;93.13
34034;BME280;63481;52.588;22.472;2023-03-16T00:48:50;100351.36;;;-0.76;93.02
34034;BME280;63481;52.588;22.472;2023-03-16T00:49:43;100356.50;;;-0.83;93.14
34034;BME280;63481;52.588;22.472;2023-03-16T00:50:36;100353.08;;;-0.86;92.91
34034;BME280;63481;52.588;22.472;2023-03-16T00:51:29;100353.95;;;-0.90;93.04
34034;BME280;63481;52.588;22.472;2023-03-16T00:52:26;100353.19;;;-0.91;93.26
34034;BME280;63481;52.588;22.472;2023-03-16T00:53:19;100354.67;;;-0.92;93.18
34034;BME280;63481;52.588;22.472;2023-03-16T00:54:14;100356.11;;;-0.95;93.32
34034;BME280;63481;52.588;22.472;2023-03-16T00:55:08;100359.98;;;-0.89;93.29
34034;BME280;63481;52.588;22.472;2023-03-16T00:56:02;100359.37;;;-0.90;93.31
34034;BME280;63481;52.588;22.472;2023-03-16T00:57:00;100363.86;;;-0.91;93.30
34034;BME280;63481;52.588;22.472;2023-03-16T00:57:54;100363.15;;;-0.95;93.44
34034;BME280;63481;52.588;22.472;2023-03-16T00:58:47;100364.36;;;-0.97;93.54
34034;BME280;63481;52.588;22.472;2023-03-16T00:59:40;100366.17;;;-0.96;93.62
34034;BME280;63481;52.588;22.472;2023-03-16T01:00:33;100360.22;;;-0.95;93.55
34034;BME280;63481;52.588;22.472;2023-03-16T01:01:29;100361.36;;;-0.97;93.46
34034;BME280;63481;52.588;22.472;2023-03-16T01:02:22;100361.80;;;-0.96;93.64
34034;BME280;63481;52.588;22.472;2023-03-16T01:03:16;100362.27;;;-0.97;93.64
34034;BME280;63481;52.588;22.472;2023-03-16T01:04:09;100368.40;;;-0.99;93.59
34034;BME280;63481;52.588;22.472;2023-03-16T01:05:03;100369.86;;;-1.00;93.65
34034;BME280;63481;52.588;22.472;2023-03-16T01:05:57;100369.34;;;-0.98;93.72
34034;BME280;63481;52.588;22.472;2023-03-16T01:06:53;100366.52;;;-1.00;93.93
34034;BME280;63481;52.588;22.472;2023-03-16T01:07:46;100367.02;;;-0.97;93.86
34034;BME280;63481;52.588;22.472;2023-03-16T01:08:39;100369.11;;;-0.91;93.80
34034;BME280;63481;52.588;22.472;2023-03-16T01:09:33;100368.98;;;-0.94;93.63
34034;BME280;63481;52.588;22.472;2023-03-16T01:10:28;100371.77;;;-0.94;93.73
34034;BME280;63481;52.588;22.472;2023-03-16T01:11:21;100371.96;;;-0.94;93.66
34034;BME280;63481;52.588;22.472;2023-03-16T01:12:17;100378.19;;;-0.95;93.76
34034;BME280;63481;52.588;22.472;2023-03-16T01:13:11;100379.20;;;-0.97;93.91
34034;BME280;63481;52.588;22.472;2023-03-16T01:14:04;100380.35;;;-0.97;93.94
34034;BME280;63481;52.588;22.472;2023-03-16T01:14:57;100381.63;;;-0.99;93.86
34034;BME280;63481;52.588;22.472;2023-03-16T01:15:52;100389.23;;;-1.02;93.92
34034;BME280;63481;52.588;22.472;2023-03-16T01:16:45;100389.43;;;-1.03;94.01
34034;BME280;63481;52.588;22.472;2023-03-16T01:17:39;100383.85;;;-1.07;94.05
34034;BME280;63481;52.588;22.472;2023-03-16T01:18:33;100386.48;;;-1.09;94.10
34034;BME280;63481;52.588;22.472;2023-03-16T01:19:28;100387.42;;;-1.12;94.06
34034;BME280;63481;52.588;22.472;2023-03-16T01:20:21;100389.70;;;-1.16;94.31
34034;BME280;63481;52.588;22.472;2023-03-16T01:21:15;100386.56;;;-1.21;94.40
34034;BME280;63481;52.588;22.472;2023-03-16T01:22:08;100387.63;;;-1.23;94.44
34034;BME280;63481;52.588;22.472;2023-03-16T01:23:01;100390.06;;;-1.25;94.33
34034;BME280;63481;52.588;22.472;2023-03-16T01:23:53;100387.46;;;-1.27;94.43
34034;BME280;63481;52.588;22.472;2023-03-16T01:24:46;100389.46;;;-1.28;94.67
34034;BME280;63481;52.588;22.472;2023-03-16T01:25:41;100391.20;;;-1.32;94.65
34034;BME280;63481;52.588;22.472;2023-03-16T01:26:35;100387.84;;;-1.34;94.51
34034;BME280;63481;52.588;22.472;2023-03-16T01:27:27;100391.31;;;-1.36;94.84
34034;BME280;63481;52.588;22.472;2023-03-16T01:28:20;100392.48;;;-1.39;95.02
34034;BME280;63481;52.588;22.472;2023-03-16T01:29:15;100392.02;;;-1.36;95.13
34034;BME280;63481;52.588;22.472;2023-03-16T01:30:09;100386.94;;;-1.35;95.55
34034;BME280;63481;52.588;22.472;2023-03-16T01:31:07;100386.66;;;-1.38;95.58
34034;BME280;63481;52.588;22.472;2023-03-16T01:32:00;100387.96;;;-1.39;95.55
34034;BME280;63481;52.588;22.472;2023-03-16T01:32:53;100391.10;;;-1.41;95.48
34034;BME280;63481;52.588;22.472;2023-03-16T01:33:46;100387.39;;;-1.38;95.56
34034;BME280;63481;52.588;22.472;2023-03-16T01:34:43;100391.15;;;-1.40;95.73
34034;BME280;63481;52.588;22.472;2023-03-16T01:35:37;100389.95;;;-1.38;95.64
34034;BME280;63481;52.588;22.472;2023-03-16T01:36:30;100391.21;;;-1.34;95.73
34034;BME280;63481;52.588;22.472;2023-03-16T01:37:30;100389.86;;;-1.33;95.63
34034;BME280;63481;52.588;22.472;2023-03-16T01:38:38;100389.27;;;-1.38;95.68
34034;BME280;63481;52.588;22.472;2023-03-16T01:39:31;100390.92;;;-1.43;95.66
34034;BME280;63481;52.588;22.472;2023-03-16T01:40:25;100391.78;;;-1.49;95.68
34034;BME280;63481;52.588;22.472;2023-03-16T01:41:18;100394.27;;;-1.54;95.66
34034;BME280;63481;52.588;22.472;2023-03-16T01:42:12;100396.30;;;-1.59;95.58
34034;BME280;63481;52.588;22.472;2023-03-16T01:43:06;100397.14;;;-1.61;95.62
34034;BME280;63481;52.588;22.472;2023-03-16T01:44:04;100397.90;;;-1.62;95.82
34034;BME280;63481;52.588;22.472;2023-03-16T01:44:59;100396.39;;;-1.63;95.69
34034;BME280;63481;52.588;22.472;2023-03-16T01:47:03;100398.43;;;-1.68;95.92
34034;BME280;63481;52.588;22.472;2023-03-16T01:47:56;100399.71;;;-1.73;95.87
34034;BME280;63481;52.588;22.472;2023-03-16T01:49:14;100397.83;;;-1.80;95.97
34034;BME280;63481;52.588;22.472;2023-03-16T01:50:09;100401.43;;;-1.86;96.08
34034;BME280;63481;52.588;22.472;2023-03-16T01:51:32;100400.88;;;-1.88;95.93
34034;BME280;63481;52.588;22.472;2023-03-16T01:52:31;100403.48;;;-1.92;96.00
34034;BME280;63481;52.588;22.472;2023-03-16T01:53:26;100407.54;;;-1.97;96.02
34034;BME280;63481;52.588;22.472;2023-03-16T01:54:25;100409.40;;;-1.98;96.16
34034;BME280;63481;52.588;22.472;2023-03-16T01:55:20;100409.93;;;-2.01;96.28
34034;BME280;63481;52.588;22.472;2023-03-16T01:56:17;100413.80;;;-2.03;96.21
34034;BME280;63481;52.588;22.472;2023-03-16T01:57:25;100412.03;;;-2.05;96.39
34034;BME280;63481;52.588;22.472;2023-03-16T01:58:22;100413.93;;;-2.05;96.37
34034;BME280;63481;52.588;22.472;2023-03-16T01:59:18;100412.03;;;-2.05;96.63
34034;BME280;63481;52.588;22.472;2023-03-16T02:00:16;100410.64;;;-2.05;96.73
34034;BME280;63481;52.588;22.472;2023-03-16T02:01:18;100411.64;;;-2.09;96.77
34034;BME280;63481;52.588;22.472;2023-03-16T02:02:13;100409.84;;;-2.10;96.82
34034;BME280;63481;52.588;22.472;2023-03-16T02:03:11;100411.75;;;-2.08;96.92
34034;BME280;63481;52.588;22.472;2023-03-16T02:04:33;100412.61;;;-2.06;96.96
34034;BME280;63481;52.588;22.472;2023-03-16T02:05:32;100409.98;;;-1.99;97.15
34034;BME280;63481;52.588;22.472;2023-03-16T02:06:29;100405.98;;;-1.99;97.00
34034;BME280;63481;52.588;22.472;2023-03-16T02:07:27;100408.73;;;-1.96;97.09
34034;BME280;63481;52.588;22.472;2023-03-16T02:08:21;100410.02;;;-1.99;97.20
34034;BME280;63481;52.588;22.472;2023-03-16T02:09:18;100408.15;;;-2.00;97.16
34034;BME280;63481;52.588;22.472;2023-03-16T02:10:14;100404.84;;;-1.96;97.28
34034;BME280;63481;52.588;22.472;2023-03-16T02:11:08;100404.84;;;-1.94;97.29
34034;BME280;63481;52.588;22.472;2023-03-16T02:12:22;100404.55;;;-1.94;97.40
34034;BME280;63481;52.588;22.472;2023-03-16T02:13:21;100404.71;;;-1.94;97.36
34034;BME280;63481;52.588;22.472;2023-03-16T02:14:14;100402.02;;;-1.93;97.47
34034;BME280;63481;52.588;22.472;2023-03-16T02:15:08;100398.12;;;-1.97;97.45
34034;BME280;63481;52.588;22.472;2023-03-16T02:16:01;100402.72;;;-2.02;97.24
34034;BME280;63481;52.588;22.472;2023-03-16T02:16:55;100402.84;;;-2.06;97.32
34034;BME280;63481;52.588;22.472;2023-03-16T02:17:49;100402.73;;;-2.10;97.26
34034;BME280;63481;52.588;22.472;2023-03-16T02:18:45;100406.76;;;-2.17;97.19
34034;BME280;63481;52.588;22.472;2023-03-16T02:20:51;100409.17;;;-2.28;97.28
34034;BME280;63481;52.588;22.472;2023-03-16T02:22:48;100410.65;;;-2.38;97.14
34034;BME280;63481;52.588;22.472;2023-03-16T02:23:42;100414.71;;;-2.41;97.17
34034;BME280;63481;52.588;22.472;2023-03-16T02:24:36;100413.71;;;-2.44;97.26
34034;BME280;63481;52.588;22.472;2023-03-16T02:25:53;100416.57;;;-2.47;97.14
34034;BME280;63481;52.588;22.472;2023-03-16T02:26:55;100417.77;;;-2.49;97.29
34034;BME280;63481;52.588;22.472;2023-03-16T02:28:07;100419.40;;;-2.52;97.41
34034;BME280;63481;52.588;22.472;2023-03-16T02:29:16;100421.13;;;-2.54;97.31
34034;BME280;63481;52.588;22.472;2023-03-16T02:30:16;100421.52;;;-2.54;97.45
34034;BME280;63481;52.588;22.472;2023-03-16T02:31:24;100421.94;;;-2.57;97.61
34034;BME280;63481;52.588;22.472;2023-03-16T02:32:17;100423.11;;;-2.59;97.42
34034;BME280;63481;52.588;22.472;2023-03-16T02:33:12;100424.69;;;-2.61;97.67
34034;BME280;63481;52.588;22.472;2023-03-16T02:34:05;100425.36;;;-2.61;97.66
34034;BME280;63481;52.588;22.472;2023-03-16T02:34:59;100426.84;;;-2.62;97.71
34034;BME280;63481;52.588;22.472;2023-03-16T02:35:53;100431.61;;;-2.66;97.60
34034;BME280;63481;52.588;22.472;2023-03-16T02:36:48;100433.19;;;-2.70;97.82
34034;BME280;63481;52.588;22.472;2023-03-16T02:37:43;100431.41;;;-2.74;97.84
34034;BME280;63481;52.588;22.472;2023-03-16T02:38:36;100432.70;;;-2.77;97.82
34034;BME280;63481;52.588;22.472;2023-03-16T02:39:29;100429.90;;;-2.82;97.92
34034;BME280;63481;52.588;22.472;2023-03-16T02:40:24;100430.19;;;-2.85;97.77
34034;BME280;63481;52.588;22.472;2023-03-16T02:41:20;100431.02;;;-2.87;97.97
34034;BME280;63481;52.588;22.472;2023-03-16T02:42:19;100431.38;;;-2.89;98.04
34034;BME280;63481;52.588;22.472;2023-03-16T02:43:19;100431.30;;;-2.93;98.03
34034;BME280;63481;52.588;22.472;2023-03-16T02:44:34;100432.88;;;-2.93;98.01
34034;BME280;63481;52.588;22.472;2023-03-16T02:45:38;100432.30;;;-2.92;98.01
34034;BME280;63481;52.588;22.472;2023-03-16T02:46:32;100433.60;;;-2.96;98.13
34034;BME280;63481;52.588;22.472;2023-03-16T02:47:33;100433.38;;;-2.97;98.13
34034;BME280;63481;52.588;22.472;2023-03-16T02:48:55;100437.45;;;-3.00;98.06
34034;BME280;63481;52.588;22.472;2023-03-16T02:49:45;100440.10;;;-3.03;98.34
34034;BME280;63481;52.588;22.472;2023-03-16T02:50:43;100438.65;;;-3.05;98.23
34034;BME280;63481;52.588;22.472;2023-03-16T02:51:38;100441.48;;;-3.04;98.18
34034;BME280;63481;52.588;22.472;2023-03-16T02:52:33;100440.79;;;-3.03;98.29
34034;BME280;63481;52.588;22.472;2023-03-16T02:53:26;100440.42;;;-3.01;98.28
34034;BME280;63481;52.588;22.472;2023-03-16T02:54:19;100440.83;;;-2.99;98.32
34034;BME280;63481;52.588;22.472;2023-03-16T02:55:13;100438.84;;;-3.01;98.32
34034;BME280;63481;52.588;22.472;2023-03-16T02:56:06;100439.59;;;-2.99;98.41
34034;BME280;63481;52.588;22.472;2023-03-16T02:57:00;100441.61;;;-3.03;98.48
34034;BME280;63481;52.588;22.472;2023-03-16T02:57:53;100445.20;;;-3.04;98.56
34034;BME280;63481;52.588;22.472;2023-03-16T02:58:47;100448.70;;;-3.07;98.58
34034;BME280;63481;52.588;22.472;2023-03-16T02:59:42;100446.13;;;-3.12;98.60
34034;BME280;63481;52.588;22.472;2023-03-16T03:00:36;100448.31;;;-3.15;98.60
34034;BME280;63481;52.588;22.472;2023-03-16T03:01:30;100449.45;;;-3.19;98.63
34034;BME280;63481;52.588;22.472;2023-03-16T03:02:24;100451.38;;;-3.19;98.56
34034;BME280;63481;52.588;22.472;2023-03-16T03:03:17;100451.48;;;-3.18;98.63
34034;BME280;63481;52.588;22.472;2023-03-16T03:04:11;100450.68;;;-3.19;98.81
34034;BME280;63481;52.588;22.472;2023-03-16T03:05:05;100449.55;;;-3.20;98.74
34034;BME280;63481;52.588;22.472;2023-03-16T03:05:59;100452.60;;;-3.21;98.73
34034;BME280;63481;52.588;22.472;2023-03-16T03:06:54;100453.19;;;-3.22;98.79
34034;BME280;63481;52.588;22.472;2023-03-16T03:07:48;100452.91;;;-3.26;98.89
34034;BME280;63481;52.588;22.472;2023-03-16T03:08:41;100455.63;;;-3.27;98.95
34034;BME280;63481;52.588;22.472;2023-03-16T03:09:34;100458.89;;;-3.29;98.99
34034;BME280;63481;52.588;22.472;2023-03-16T03:10:27;100461.05;;;-3.30;98.86
34034;BME280;63481;52.588;22.472;2023-03-16T03:11:23;100463.40;;;-3.27;99.01
34034;BME280;63481;52.588;22.472;2023-03-16T03:12:16;100467.38;;;-3.26;99.09
34034;BME280;63481;52.588;22.472;2023-03-16T03:13:09;100469.63;;;-3.26;99.16
34034;BME280;63481;52.588;22.472;2023-03-16T03:14:04;100471.30;;;-3.27;99.15
34034;BME280;63481;52.588;22.472;2023-03-16T03:14:57;100469.55;;;-3.32;99.21
34034;BME280;63481;52.588;22.472;2023-03-16T03:15:51;100469.13;;;-3.33;99.22
34034;BME280;63481;52.588;22.472;2023-03-16T03:16:45;100466.01;;;-3.35;99.30
34034;BME280;63481;52.588;22.472;2023-03-16T03:17:39;100471.25;;;-3.36;99.26
34034;BME280;63481;52.588;22.472;2023-03-16T03:18:32;100469.61;;;-3.35;99.32
34034;BME280;63481;52.588;22.472;2023-03-16T03:19:26;100471.25;;;-3.29;99.32
34034;BME280;63481;52.588;22.472;2023-03-16T03:20:19;100475.16;;;-3.28;99.35
34034;BME280;63481;52.588;22.472;2023-03-16T03:21:13;100472.95;;;-3.28;99.47
34034;BME280;63481;52.588;22.472;2023-03-16T03:22:07;100472.95;;;-3.29;99.38
34034;BME280;63481;52.588;22.472;2023-03-16T03:23:00;100473.55;;;-3.32;99.50
34034;BME280;63481;52.588;22.472;2023-03-16T03:23:55;100471.52;;;-3.35;99.42
34034;BME280;63481;52.588;22.472;2023-03-16T03:24:48;100468.52;;;-3.39;99.57
34034;BME280;63481;52.588;22.472;2023-03-16T03:25:41;100468.20;;;-3.44;99.58
34034;BME280;63481;52.588;22.472;2023-03-16T03:26:35;100469.67;;;-3.43;99.47
34034;BME280;63481;52.588;22.472;2023-03-16T03:27:31;100469.96;;;-3.40;99.56
34034;BME280;63481;52.588;22.472;2023-03-16T03:28:25;100469.24;;;-3.42;99.67
34034;BME280;63481;52.588;22.472;2023-03-16T03:29:19;100469.09;;;-3.44;99.59
34034;BME280;63481;52.588;22.472;2023-03-16T03:30:16;100473.97;;;-3.45;99.71
34034;BME280;63481;52.588;22.472;2023-03-16T03:31:19;100473.59;;;-3.46;99.67
34034;BME280;63481;52.588;22.472;2023-03-16T03:32:13;100474.02;;;-3.45;99.64
34034;BME280;63481;52.588;22.472;2023-03-16T03:33:06;100470.66;;;-3.47;99.72
34034;BME280;63481;52.588;22.472;2023-03-16T03:33:59;100469.77;;;-3.49;99.72
34034;BME280;63481;52.588;22.472;2023-03-16T03:34:58;100472.88;;;-3.51;99.75
34034;BME280;63481;52.588;22.472;2023-03-16T03:35:58;100473.32;;;-3.52;99.62
34034;BME280;63481;52.588;22.472;2023-03-16T03:36:51;100472.00;;;-3.46;99.74
34034;BME280;63481;52.588;22.472;2023-03-16T03:37:46;100470.94;;;-3.39;99.74
34034;BME280;63481;52.588;22.472;2023-03-16T03:38:40;100470.11;;;-3.39;99.81
34034;BME280;63481;52.588;22.472;2023-03-16T03:39:33;100472.95;;;-3.40;99.80
34034;BME280;63481;52.588;22.472;2023-03-16T03:40:27;100471.64;;;-3.41;99.80
34034;BME280;63481;52.588;22.472;2023-03-16T03:41:25;100466.58;;;-3.38;99.89
34034;BME280;63481;52.588;22.472;2023-03-16T03:42:18;100471.40;;;-3.38;99.88
34034;BME280;63481;52.588;22.472;2023-03-16T03:43:11;100469.43;;;-3.42;99.85
34034;BME280;63481;52.588;22.472;2023-03-16T03:44:07;100473.67;;;-3.43;99.94
34034;BME280;63481;52.588;22.472;2023-03-16T03:45:01;100469.66;;;-3.40;99.97
34034;BME280;63481;52.588;22.472;2023-03-16T03:45:58;100475.51;;;-3.37;99.97
34034;BME280;63481;52.588;22.472;2023-03-16T03:46:52;100477.88;;;-3.34;99.99
34034;BME280;63481;52.588;22.472;2023-03-16T03:47:46;100480.02;;;-3.28;100.00
34034;BME280;63481;52.588;22.472;2023-03-16T03:48:43;100483.77;;;-3.13;99.99
34034;BME280;63481;52.588;22.472;2023-03-16T03:49:36;100488.16;;;-3.04;100.00
34034;BME280;63481;52.588;22.472;2023-03-16T03:50:29;100488.54;;;-2.97;100.00
34034;BME280;63481;52.588;22.472;2023-03-16T03:51:41;100489.92;;;-2.95;100.00
34034;BME280;63481;52.588;22.472;2023-03-16T03:52:41;100490.17;;;-2.96;100.00
34034;BME280;63481;52.588;22.472;2023-03-16T03:53:34;100493.26;;;-2.98;100.00
34034;BME280;63481;52.588;22.472;2023-03-16T03:54:54;100490.77;;;-2.99;100.00
34034;BME280;63481;52.588;22.472;2023-03-16T03:55:47;100491.96;;;-3.02;100.00
34034;BME280;63481;52.588;22.472;2023-03-16T03:56:42;100494.52;;;-3.03;100.00
34034;BME280;63481;52.588;22.472;2023-03-16T03:57:38;100494.10;;;-3.07;100.00
34034;BME280;63481;52.588;22.472;2023-03-16T03:58:31;100498.17;;;-3.10;100.00
34034;BME280;63481;52.588;22.472;2023-03-16T03:59:25;100493.55;;;-3.13;100.00
34034;BME280;63481;52.588;22.472;2023-03-16T04:00:37;100498.24;;;-3.11;100.00
34034;BME280;63481;52.588;22.472;2023-03-16T04:01:30;100496.52;;;-3.02;100.00
34034;BME280;63481;52.588;22.472;2023-03-16T04:02:24;100497.35;;;-2.92;100.00
34034;BME280;63481;52.588;22.472;2023-03-16T04:03:19;100493.85;;;-2.85;100.00
34034;BME280;63481;52.588;22.472;2023-03-16T04:04:14;100492.55;;;-2.82;100.00
34034;BME280;63481;52.588;22.472;2023-03-16T04:05:07;100494.70;;;-2.82;100.00
34034;BME280;63481;52.588;22.472;2023-03-16T04:06:00;100498.46;;;-2.80;100.00
34034;BME280;63481;52.588;22.472;2023-03-16T04:06:54;100499.89;;;-2.77;100.00
34034;BME280;63481;52.588;22.472;2023-03-16T04:07:48;100499.98;;;-2.72;100.00
34034;BME280;63481;52.588;22.472;2023-03-16T04:08:46;100496.51;;;-2.67;100.00
34034;BME280;63481;52.588;22.472;2023-03-16T04:09:42;100495.15;;;-2.68;100.00
34034;BME280;63481;52.588;22.472;2023-03-16T04:10:40;100496.73;;;-2.70;100.00
34034;BME280;63481;52.588;22.472;2023-03-16T04:11:33;100500.53;;;-2.70;100.00
34034;BME280;63481;52.588;22.472;2023-03-16T04:12:26;100501.89;;;-2.72;100.00
34034;BME280;63481;52.588;22.472;2023-03-16T04:13:19;100508.61;;;-2.73;100.00
34034;BME280;63481;52.588;22.472;2023-03-16T04:14:12;100509.30;;;-2.73;100.00
34034;BME280;63481;52.588;22.472;2023-03-16T04:15:06;100509.58;;;-2.75;100.00
34034;BME280;63481;52.588;22.472;2023-03-16T04:16:06;100509.35;;;-2.76;100.00
34034;BME280;63481;52.588;22.472;2023-03-16T04:17:06;100512.10;;;-2.78;100.00
34034;BME280;63481;52.588;22.472;2023-03-16T04:18:00;100512.52;;;-2.79;100.00
34034;BME280;63481;52.588;22.472;2023-03-16T04:18:54;100511.99;;;-2.81;100.00
34034;BME280;63481;52.588;22.472;2023-03-16T04:19:48;100512.99;;;-2.83;100.00
34034;BME280;63481;52.588;22.472;2023-03-16T04:20:43;100511.45;;;-2.83;100.00
34034;BME280;63481;52.588;22.472;2023-03-16T04:21:36;100515.77;;;-2.85;100.00
34034;BME280;63481;52.588;22.472;2023-03-16T04:22:29;100516.45;;;-2.85;100.00
34034;BME280;63481;52.588;22.472;2023-03-16T04:23:23;100515.58;;;-2.80;100.00
34034;BME280;63481;52.588;22.472;2023-03-16T04:24:17;100514.50;;;-2.77;100.00
34034;BME280;63481;52.588;22.472;2023-03-16T04:25:13;100514.98;;;-2.73;100.00
34034;BME280;63481;52.588;22.472;2023-03-16T04:26:07;100521.13;;;-2.69;100.00
34034;BME280;63481;52.588;22.472;2023-03-16T04:27:01;100519.17;;;-2.66;100.00
34034;BME280;63481;52.588;22.472;2023-03-16T04:27:55;100523.27;;;-2.67;100.00
34034;BME280;63481;52.588;22.472;2023-03-16T04:28:50;100520.48;;;-2.67;100.00
34034;BME280;63481;52.588;22.472;2023-03-16T04:29:44;100519.33;;;-2.66;100.00
34034;BME280;63481;52.588;22.472;2023-03-16T04:30:38;100519.29;;;-2.63;99.98
34034;BME280;63481;52.588;22.472;2023-03-16T04:31:40;100519.13;;;-2.61;100.00
34034;BME280;63481;52.588;22.472;2023-03-16T04:32:34;100518.16;;;-2.62;99.99
34034;BME280;63481;52.588;22.472;2023-03-16T04:33:27;100522.22;;;-2.65;100.00
34034;BME280;63481;52.588;22.472;2023-03-16T04:34:20;100525.77;;;-2.63;100.00
34034;BME280;63481;52.588;22.472;2023-03-16T04:35:17;100527.58;;;-2.62;99.99
34034;BME280;63481;52.588;22.472;2023-03-16T04:36:14;100525.32;;;-2.60;100.00
34034;BME280;63481;52.588;22.472;2023-03-16T04:37:08;100522.67;;;-2.55;99.95
34034;BME280;63481;52.588;22.472;2023-03-16T04:38:01;100521.32;;;-2.53;99.95
34034;BME280;63481;52.588;22.472;2023-03-16T04:39:02;100518.27;;;-2.56;99.94
34034;BME280;63481;52.588;22.472;2023-03-16T04:39:55;100522.04;;;-2.56;99.90
34034;BME280;63481;52.588;22.472;2023-03-16T04:40:48;100520.45;;;-2.55;99.90
34034;BME280;63481;52.588;22.472;2023-03-16T04:41:43;100523.84;;;-2.54;99.89
34034;BME280;63481;52.588;22.472;2023-03-16T04:42:39;100520.07;;;-2.53;99.85
34034;BME280;63481;52.588;22.472;2023-03-16T04:43:33;100522.81;;;-2.52;99.85
34034;BME280;63481;52.588;22.472;2023-03-16T04:44:33;100524.52;;;-2.49;99.83
34034;BME280;63481;52.588;22.472;2023-03-16T04:45:25;100523.61;;;-2.49;99.89
34034;BME280;63481;52.588;22.472;2023-03-16T04:46:18;100527.83;;;-2.52;99.78
34034;BME280;63481;52.588;22.472;2023-03-16T04:47:15;100531.48;;;-2.56;99.87
34034;BME280;63481;52.588;22.472;2023-03-16T04:48:08;100533.70;;;-2.51;99.66
34034;BME280;63481;52.588;22.472;2023-03-16T04:49:02;100533.43;;;-2.50;99.73